Time;durP1;ratioP1;P1;durP2;ratioP2;P2;SDS_P1;SDS_P2;PMS_P1;PMS_P2;Temp;Humidity;BMP_temperature;BMP_pressure;BME280_temperature;BME280_humidity;BME280_pressure;Samples;Min_cycle;Max_cycle;Signal;HPM_P1;HPM_P2
2023/04/17 00:02:29;;;;;;;5.38;1.50;;;;;;;10.88;78.38;101825.22;6368161;23;20012;-83
2023/04/17 00:04:59;;;;;;;9.18;2.70;;;;;;;10.76;79.59;101826.22;6342416;23;20024;-83
2023/04/17 00:07:33;;;;;;;1.67;1.58;;;;;;;10.76;79.87;101817.50;6379801;23;20013;-83
2023/04/17 00:10:09;;;;;;;2.22;2.13;;;;;;;10.76;80.55;101820.13;6395132;23;20069;-82
2023/04/17 00:12:40;;;;;;;1.40;1.30;;;;;;;10.61;81.71;101815.88;6370623;23;20055;-83
2023/04/17 00:15:10;;;;;;;1.98;1.88;;;;;;;10.65;81.67;101823.72;6368501;23;20021;-83
2023/04/17 00:17:41;;;;;;;1.63;1.55;;;;;;;10.74;79.69;101821.88;6372782;23;20059;-84
2023/04/17 00:20:12;;;;;;;2.63;2.45;;;;;;;10.65;81.43;101814.97;6372703;23;20023;-84
2023/04/17 00:22:42;;;;;;;4.85;3.53;;;;;;;10.73;79.54;101812.25;6377822;23;20005;-82
2023/04/17 00:25:13;;;;;;;6.20;3.42;;;;;;;10.71;80.78;101813.16;6374374;23;20024;-82
2023/04/17 00:27:44;;;;;;;1.60;1.50;;;;;;;10.71;80.20;101807.03;6347782;23;20005;-83
2023/04/17 00:30:14;;;;;;;2.78;2.55;;;;;;;10.67;81.40;101811.44;6368029;23;20096;-82
2023/04/17 00:32:45;;;;;;;5.03;3.08;;;;;;;10.79;79.83;101805.19;6380577;23;20373;-83
2023/04/17 00:35:15;;;;;;;15.45;2.00;;;;;;;10.69;80.85;101806.19;6367703;23;20016;-83
2023/04/17 00:37:47;;;;;;;3.17;2.05;;;;;;;10.82;78.87;101806.91;6370677;23;20009;-83
2023/04/17 00:40:17;;;;;;;2.50;2.17;;;;;;;10.71;80.92;101804.41;6369482;23;20014;-83
2023/04/17 00:42:51;;;;;;;2.55;2.35;;;;;;;10.71;80.60;101804.41;6371117;23;20585;-83
2023/04/17 00:45:22;;;;;;;1.52;1.42;;;;;;;10.78;79.49;101805.22;6370478;23;20013;-82
2023/04/17 00:47:53;;;;;;;3.13;2.83;;;;;;;10.79;79.69;101801.69;6383044;23;20013;-82
2023/04/17 00:50:27;;;;;;;2.17;2.08;;;;;;;10.59;82.08;101799.28;6368734;23;20400;-82
2023/04/17 00:52:59;;;;;;;1.92;1.48;;;;;;;10.59;81.74;101802.78;6373428;23;20005;-83
2023/04/17 00:55:31;;;;;;;7.65;3.08;;;;;;;10.69;80.60;101798.31;6374603;23;20029;-83
2023/04/17 00:58:02;;;;;;;2.50;2.30;;;;;;;10.70;80.71;101805.28;6345061;23;20002;-83
2023/04/17 01:00:33;;;;;;;3.45;3.05;;;;;;;10.72;80.99;101806.16;6367254;23;20043;-83
2023/04/17 01:03:04;;;;;;;2.45;2.25;;;;;;;10.71;81.04;101805.28;6404098;23;20009;-83
2023/04/17 01:05:37;;;;;;;5.07;3.63;;;;;;;10.74;80.05;101801.78;6341406;23;20463;-83
2023/04/17 01:08:07;;;;;;;2.77;2.57;;;;;;;10.71;80.54;101800.03;6345205;23;20036;-83
2023/04/17 01:10:38;;;;;;;2.88;2.65;;;;;;;10.69;80.86;101798.31;6366945;23;20271;-82
2023/04/17 01:13:08;;;;;;;3.25;2.95;;;;;;;10.74;81.32;101806.13;6369159;23;20079;-83
2023/04/17 01:15:39;;;;;;;3.25;3.05;;;;;;;10.59;82.18;101797.53;6342994;23;20104;-83
2023/04/17 01:18:10;;;;;;;4.88;4.47;;;;;;;10.64;81.99;101795.72;6369746;23;20397;-84
2023/04/17 01:20:40;;;;;;;2.17;2.00;;;;;;;10.77;79.68;101795.63;6367258;23;20017;-82
2023/04/17 01:23:11;;;;;;;3.50;3.20;;;;;;;10.60;82.07;101795.75;6367854;23;20005;-83
2023/04/17 01:25:41;;;;;;;1.70;1.60;;;;;;;10.64;80.64;101800.97;6366965;23;20017;-83
2023/04/17 01:28:12;;;;;;;2.83;2.63;;;;;;;10.63;81.49;101798.38;6369136;23;20008;-81
2023/04/17 01:30:43;;;;;;;1.35;1.25;;;;;;;10.51;83.15;101788.88;6371125;23;20393;-82
2023/04/17 01:33:13;;;;;;;1.92;1.83;;;;;;;10.69;80.85;101799.19;6368592;23;20070;-84
2023/04/17 01:35:43;;;;;;;1.85;1.75;;;;;;;10.66;81.05;101795.72;6396467;23;20028;-83
2023/04/17 01:38:14;;;;;;;1.88;1.77;;;;;;;10.72;80.82;101793.03;6379321;23;20083;-83
2023/04/17 01:40:44;;;;;;;2.20;1.98;;;;;;;10.56;82.01;101802.81;6369137;23;20013;-83
2023/04/17 01:43:15;;;;;;;2.78;2.60;;;;;;;10.58;81.56;101797.56;6368040;23;20013;-82
2023/04/17 01:45:45;;;;;;;6.00;4.85;;;;;;;10.63;81.46;101804.47;6368832;23;20100;-82
2023/04/17 01:48:16;;;;;;;3.15;2.42;;;;;;;10.55;81.99;101806.31;6369462;23;20020;-81
2023/04/17 01:50:46;;;;;;;1.25;1.15;;;;;;;10.48;82.56;101799.38;6367394;23;20017;-83
2023/04/17 01:53:17;;;;;;;3.00;2.58;;;;;;;10.45;82.51;101799.44;6377186;23;20029;-83
2023/04/17 01:55:47;;;;;;;2.25;1.90;;;;;;;10.40;83.01;101802.09;6367832;23;20048;-83
2023/04/17 01:58:18;;;;;;;2.55;2.35;;;;;;;10.58;80.95;101805.44;6353127;23;20008;-83
2023/04/17 02:00:49;;;;;;;2.10;2.00;;;;;;;10.58;81.29;101808.06;6398446;23;20528;-82
2023/04/17 02:03:19;;;;;;;2.55;2.35;;;;;;;10.49;81.65;101809.00;6341245;23;20019;-83
2023/04/17 02:05:52;;;;;;;1.05;1.05;;;;;;;10.52;81.54;101804.59;6395634;23;20095;-82
2023/04/17 02:08:22;;;;;;;4.80;2.70;;;;;;;10.47;81.76;101808.13;6342813;23;20005;-83
2023/04/17 02:10:53;;;;;;;3.45;2.75;;;;;;;10.44;82.47;101803.78;6366538;23;20087;-83
2023/04/17 02:13:23;;;;;;;1.98;1.88;;;;;;;10.48;81.63;101804.63;6375752;23;20008;-83
2023/04/17 02:15:54;;;;;;;3.72;3.42;;;;;;;10.53;81.56;101805.47;6370569;23;20039;-83
2023/04/17 02:18:25;;;;;;;2.55;2.35;;;;;;;10.56;80.26;101808.06;6366451;23;20035;-82
2023/04/17 02:20:55;;;;;;;1.90;1.80;;;;;;;10.51;80.88;101810.72;6394299;23;20088;-83
2023/04/17 02:23:26;;;;;;;2.83;2.50;;;;;;;10.54;80.50;101805.44;6367688;23;20148;-83
2023/04/17 02:25:56;;;;;;;2.17;2.00;;;;;;;10.37;82.06;101802.97;6344987;23;20027;-83
2023/04/17 02:28:27;;;;;;;8.57;1.92;;;;;;;10.49;81.47;101806.38;6369143;23;20513;-82
2023/04/17 02:30:57;;;;;;;1.27;1.25;;;;;;;10.48;81.31;101804.63;6368102;23;20020;-82
2023/04/17 02:33:28;;;;;;;2.05;1.95;;;;;;;10.50;81.35;101805.50;6370093;23;20016;-82
2023/04/17 02:35:58;;;;;;;4.32;3.35;;;;;;;10.33;82.41;101805.63;6368820;23;20017;-82
2023/04/17 02:38:29;;;;;;;9.13;3.47;;;;;;;10.33;82.68;101805.63;6370024;23;20389;-83
2023/04/17 02:40:59;;;;;;;1.70;1.60;;;;;;;10.41;81.40;101805.56;6369147;23;20009;-82
2023/04/17 02:43:30;;;;;;;2.17;2.08;;;;;;;10.06;84.49;101807.59;6368844;23;20013;-83
2023/04/17 02:46:01;;;;;;;2.58;2.38;;;;;;;10.15;83.44;101806.63;6397500;23;20017;-81
2023/04/17 02:48:31;;;;;;;4.22;3.03;;;;;;;10.15;83.42;101806.63;6344539;23;20013;-83
2023/04/17 02:51:02;;;;;;;3.30;3.00;;;;;;;10.30;82.27;101808.25;6369066;23;20016;-82
2023/04/17 02:53:32;;;;;;;3.22;2.92;;;;;;;10.19;83.07;101806.59;6368885;23;20016;-83
2023/04/17 02:56:03;;;;;;;2.35;2.15;;;;;;;10.27;82.68;101806.53;6370406;23;20055;-83
2023/04/17 02:58:34;;;;;;;2.45;2.33;;;;;;;10.26;82.53;101812.66;6369688;23;20017;-82
2023/04/17 03:01:04;;;;;;;3.72;3.42;;;;;;;10.26;82.76;101810.03;6393337;23;20062;-82
2023/04/17 03:03:37;;;;;;;2.10;2.00;;;;;;;10.07;83.62;101815.44;6377308;23;20013;-83
2023/04/17 03:06:08;;;;;;;4.32;3.30;;;;;;;10.28;82.70;101803.03;6370287;23;20017;-83
2023/04/17 03:08:39;;;;;;;2.95;2.65;;;;;;;10.18;82.79;101809.25;6377535;23;20100;-83
2023/04/17 03:11:09;;;;;;;5.75;2.58;;;;;;;10.26;82.21;101810.03;6395210;23;20028;-82
2023/04/17 03:13:40;;;;;;;2.33;2.17;;;;;;;10.27;82.14;101809.16;6368007;23;20024;-83
2023/04/17 03:16:11;;;;;;;3.22;2.90;;;;;;;10.34;81.40;101802.97;6369328;23;20088;-82
2023/04/17 03:18:41;;;;;;;3.63;3.33;;;;;;;10.38;81.50;101815.19;6369144;23;20009;-82
2023/04/17 03:21:12;;;;;;;4.88;4.40;;;;;;;10.33;81.39;101806.47;6392271;23;20036;-82
2023/04/17 03:23:42;;;;;;;2.72;2.53;;;;;;;10.18;82.96;101809.25;6376012;23;20758;-83
2023/04/17 03:26:13;;;;;;;6.38;3.45;;;;;;;10.26;81.70;101812.66;6370911;23;20021;-82
2023/04/17 03:28:43;;;;;;;4.85;3.15;;;;;;;10.27;81.53;101814.41;6369302;23;20021;-83
2023/04/17 03:31:14;;;;;;;3.97;3.30;;;;;;;10.26;81.29;101817.91;6373427;23;20019;-82
2023/04/17 03:33:44;;;;;;;4.38;2.95;;;;;;;10.33;81.16;101809.09;6409643;23;20042;-83
2023/04/17 03:36:15;;;;;;;3.00;2.78;;;;;;;10.35;80.62;101814.34;6370227;23;20021;-83
2023/04/17 03:38:46;;;;;;;5.68;3.78;;;;;;;10.04;84.29;101817.19;6379776;23;20108;-83
2023/04/17 03:41:17;;;;;;;7.13;3.78;;;;;;;10.16;82.77;101819.75;6398819;23;20036;-83
2023/04/17 03:43:47;;;;;;;4.90;2.97;;;;;;;10.33;81.30;101819.59;6367414;23;20007;-82
2023/04/17 03:46:18;;;;;;;2.78;2.58;;;;;;;10.37;80.96;101817.84;6395120;23;20009;-84
2023/04/17 03:48:48;;;;;;;5.75;4.53;;;;;;;10.34;80.99;101823.06;6393731;23;20005;-84
2023/04/17 03:51:19;;;;;;;3.80;3.50;;;;;;;10.21;82.19;101822.31;6347979;23;20041;-83
2023/04/17 03:53:49;;;;;;;5.53;2.88;;;;;;;10.14;83.11;101820.63;6346070;23;20087;-83
2023/04/17 03:56:20;;;;;;;4.90;3.72;;;;;;;10.11;82.79;101815.41;6345632;23;20074;-82
2023/04/17 03:58:51;;;;;;;3.95;3.58;;;;;;;10.14;82.52;101823.25;6370302;23;20013;-83
2023/04/17 04:01:22;;;;;;;6.22;2.58;;;;;;;10.08;82.98;101826.81;6370718;23;20009;-83
2023/04/17 04:03:55;;;;;;;3.60;3.40;;;;;;;10.27;81.25;101822.28;6371623;23;20065;-82
2023/04/17 04:06:28;;;;;;;;;;;;;;;10.23;81.68;101826.69;6374793;23;20020;-83
2023/04/17 04:08:59;;;;;;;3.50;3.17;;;;;;;10.33;80.24;101827.47;6349553;23;19908;-83
2023/04/17 04:11:29;;;;;;;7.22;4.10;;;;;;;10.20;82.20;101824.06;6398271;23;20033;-83
2023/04/17 04:14:00;;;;;;;7.32;4.28;;;;;;;10.39;80.60;101824.81;6373425;23;20044;-83
2023/04/17 04:16:30;;;;;;;3.65;3.25;;;;;;;10.28;81.45;101831.00;6373681;23;20013;-82
2023/04/17 04:19:01;;;;;;;3.33;3.05;;;;;;;10.25;81.75;101821.41;6374320;23;20032;-83
2023/04/17 04:21:33;;;;;;;2.53;2.42;;;;;;;10.25;80.65;101824.03;6348234;23;20017;-82
2023/04/17 04:24:03;;;;;;;4.10;3.10;;;;;;;10.06;83.02;101834.66;6379601;23;20020;-83
2023/04/17 04:26:34;;;;;;;3.13;2.83;;;;;;;10.14;81.94;101821.50;6373937;23;20009;-82
2023/04/17 04:29:04;;;;;;;3.55;3.35;;;;;;;10.21;81.30;101823.19;6373404;23;20025;-82
2023/04/17 04:31:36;;;;;;;15.32;5.10;;;;;;;10.10;82.21;101835.50;6371415;23;20017;-83
2023/04/17 04:34:08;;;;;;;5.13;3.58;;;;;;;10.09;82.75;101828.50;6372744;23;20016;-83
2023/04/17 04:36:49;;;;;;;3.53;3.20;;;;;;;10.20;81.86;101831.94;6350721;23;20024;-83
2023/04/17 04:39:19;;;;;;;4.43;2.22;;;;;;;10.12;82.78;101839.00;6378773;23;20417;-84
2023/04/17 04:41:50;;;;;;;4.55;4.15;;;;;;;10.15;82.03;101836.38;6374389;23;20016;-83
2023/04/17 04:44:21;;;;;;;3.35;1.80;;;;;;;10.12;82.21;101840.75;6370606;23;20017;-83
2023/04/17 04:46:54;;;;;;;3.03;2.83;;;;;;;10.18;81.86;101835.47;6382352;23;20005;-83
2023/04/17 04:49:24;;;;;;;2.95;2.75;;;;;;;10.26;80.92;101841.53;6372759;23;20091;-83
2023/04/17 04:51:55;;;;;;;3.20;2.92;;;;;;;10.27;80.33;101840.66;6374084;23;20006;-83
2023/04/17 04:54:26;;;;;;;4.40;4.03;;;;;;;10.23;81.57;101846.78;6373671;23;20028;-83
2023/04/17 04:56:56;;;;;;;3.72;3.42;;;;;;;10.18;81.27;101851.19;6373909;23;20009;-83
2023/04/17 04:59:27;;;;;;;4.53;4.22;;;;;;;10.21;81.48;101851.16;6372490;23;20051;-83
2023/04/17 05:01:57;;;;;;;4.50;3.92;;;;;;;10.07;82.97;101852.13;6412783;23;20152;-83
2023/04/17 05:04:28;;;;;;;4.43;4.03;;;;;;;9.96;83.94;101851.31;6375267;23;20068;-83
2023/04/17 05:06:58;;;;;;;3.58;3.28;;;;;;;10.16;81.50;101858.19;6372637;23;20008;-83
2023/04/17 05:09:31;;;;;;;3.80;3.50;;;;;;;10.14;82.54;101859.94;6345697;23;20020;-85
2023/04/17 05:12:01;;;;;;;5.25;4.43;;;;;;;9.96;83.72;101853.09;6370362;23;20016;-85
2023/04/17 05:14:32;;;;;;;4.45;3.78;;;;;;;10.12;82.47;101859.13;6370979;23;20049;-83
2023/04/17 05:17:02;;;;;;;3.95;3.10;;;;;;;10.11;82.40;101862.63;6368541;23;20005;-84
2023/04/17 05:19:33;;;;;;;8.38;4.63;;;;;;;10.01;83.04;101867.91;6365997;23;20025;-84
2023/04/17 05:22:03;;;;;;;10.10;5.70;;;;;;;10.08;82.45;101864.38;6366341;23;20007;-83
2023/04/17 05:24:33;;;;;;;8.43;5.47;;;;;;;10.17;81.67;101871.28;6368755;23;20009;-83
2023/04/17 05:27:04;;;;;;;5.00;4.18;;;;;;;10.10;82.33;101877.47;6371705;23;20009;-85
2023/04/17 05:29:36;;;;;;;3.45;3.13;;;;;;;10.16;81.37;101874.81;6367007;23;20063;-83
2023/04/17 05:32:06;;;;;;;4.43;4.13;;;;;;;10.11;82.44;101873.97;6364759;23;20016;-84
2023/04/17 05:34:36;;;;;;;3.67;3.40;;;;;;;10.01;83.44;101867.91;6396401;23;20013;-85
2023/04/17 05:37:07;;;;;;;3.88;3.60;;;;;;;10.21;81.65;101877.38;6370451;23;20021;-87
2023/04/17 05:39:38;;;;;;;5.88;4.53;;;;;;;10.29;81.29;101880.81;6369552;23;20013;-83
2023/04/17 05:42:08;;;;;;;14.52;5.28;;;;;;;10.21;80.99;101875.66;6367688;23;20001;-86
2023/04/17 05:44:39;;;;;;;4.70;3.83;;;;;;;10.26;80.71;101880.88;6367502;23;20357;-83
2023/04/17 05:47:09;;;;;;;3.05;2.83;;;;;;;10.36;80.20;101879.03;6391123;23;20012;-84
2023/04/17 05:49:40;;;;;;;4.65;4.30;;;;;;;10.07;83.49;101873.13;6364014;23;20412;-83
2023/04/17 05:52:10;;;;;;;7.47;4.93;;;;;;;10.16;81.39;101881.81;6364981;23;20001;-86
2023/04/17 05:54:40;;;;;;;5.55;5.15;;;;;;;10.18;81.09;101880.06;6364627;23;20017;-84
2023/04/17 05:57:11;;;;;;;5.40;4.70;;;;;;;10.14;82.24;101873.06;6375980;23;20005;-87
2023/04/17 05:59:42;;;;;;;4.20;3.90;;;;;;;10.19;82.24;101873.94;6364796;23;20013;-83
2023/04/17 06:02:12;;;;;;;5.72;4.47;;;;;;;10.21;81.33;101874.75;6364993;23;20005;-83
2023/04/17 06:04:43;;;;;;;8.95;4.85;;;;;;;10.24;81.33;101878.25;6365572;23;20013;-83
2023/04/17 06:07:13;;;;;;;4.25;3.95;;;;;;;10.17;82.77;101878.31;6367420;23;20005;-84
2023/04/17 06:09:44;;;;;;;21.35;5.03;;;;;;;9.96;83.81;101880.16;6366759;23;20027;-84
2023/04/17 06:12:15;;;;;;;3.72;3.42;;;;;;;10.15;82.36;101882.69;6368919;23;20029;-87
2023/04/17 06:14:45;;;;;;;4.30;3.88;;;;;;;10.18;82.12;101882.66;6369147;23;20017;-83
2023/04/17 06:17:15;;;;;;;8.43;5.97;;;;;;;10.24;81.97;101886.13;6404883;23;20295;-83
2023/04/17 06:19:46;;;;;;;4.25;3.60;;;;;;;10.27;81.73;101885.25;6367876;23;20017;-83
2023/04/17 06:22:16;;;;;;;3.83;2.67;;;;;;;10.09;83.25;101883.59;6369213;23;19997;-84
2023/04/17 06:24:47;;;;;;;3.95;3.25;;;;;;;10.13;83.15;101879.19;6369186;23;20408;-84
2023/04/17 06:27:17;;;;;;;4.30;3.95;;;;;;;9.99;83.91;101885.41;6367090;23;20012;-83
2023/04/17 06:29:48;;;;;;;4.53;4.18;;;;;;;10.23;81.74;101888.75;6365056;23;20046;-88
2023/04/17 06:32:18;;;;;;;4.57;4.18;;;;;;;10.29;81.90;101888.69;6366382;23;20379;-85
2023/04/17 06:34:49;;;;;;;5.60;5.15;;;;;;;10.42;80.52;101894.75;6367122;23;20021;-85
2023/04/17 06:37:19;;;;;;;8.07;5.15;;;;;;;10.29;81.92;101887.84;6369602;23;20013;-83
2023/04/17 06:39:50;;;;;;;5.55;4.80;;;;;;;10.35;80.70;101891.31;6370038;23;20455;-83
2023/04/17 06:42:20;;;;;;;4.07;3.55;;;;;;;10.18;83.03;101899.25;6368029;23;20032;-84
2023/04/17 06:44:51;;;;;;;3.17;2.90;;;;;;;10.22;82.03;101897.50;6366814;23;20024;-83
2023/04/17 06:47:21;;;;;;;4.60;3.75;;;;;;;10.23;82.25;101901.88;6379394;23;20009;-85
2023/04/17 06:49:52;;;;;;;6.50;5.57;;;;;;;10.15;82.87;101901.03;6368009;23;20037;-85
2023/04/17 06:52:22;;;;;;;5.90;5.15;;;;;;;10.18;82.61;101906.28;6367832;23;20009;-84
2023/04/17 06:54:54;;;;;;;3.50;3.20;;;;;;;10.35;81.69;101912.28;6363742;23;20465;-84
2023/04/17 06:57:24;;;;;;;6.15;3.65;;;;;;;10.16;82.30;101913.28;6371111;23;20012;-83
2023/04/17 06:59:54;;;;;;;3.20;3.00;;;;;;;10.33;81.16;101916.66;6363190;23;20287;-82
2023/04/17 07:02:25;;;;;;;4.43;3.78;;;;;;;10.24;81.64;101914.09;6365628;23;20039;-83
2023/04/17 07:04:55;;;;;;;3.22;3.03;;;;;;;10.18;82.77;101916.78;6367535;23;20013;-84
2023/04/17 07:07:28;;;;;;;4.70;3.55;;;;;;;10.21;82.06;101916.72;6368171;23;20119;-84
2023/04/17 07:09:59;;;;;;;4.15;3.80;;;;;;;10.32;81.39;101917.53;6367501;23;20064;-86
2023/04/17 07:12:29;;;;;;;3.75;3.05;;;;;;;10.05;83.32;101929.94;6363675;23;20146;-85
2023/04/17 07:15:00;;;;;;;4.97;3.47;;;;;;;10.17;82.94;101931.63;6367913;23;20020;-86
2023/04/17 07:17:30;;;;;;;8.50;5.38;;;;;;;10.15;82.59;101933.41;6376790;23;20247;-85
2023/04/17 07:20:01;;;;;;;6.35;4.25;;;;;;;10.26;82.06;101935.94;6368551;23;20596;-85
2023/04/17 07:22:33;;;;;;;5.68;4.13;;;;;;;10.32;82.03;101929.81;6373294;23;20509;-85
2023/04/17 07:25:04;;;;;;;17.10;4.03;;;;;;;10.23;82.43;101930.72;6372431;23;20073;-84
2023/04/17 07:27:37;;;;;;;5.13;4.28;;;;;;;10.22;82.61;101942.97;6401486;23;20468;-85
2023/04/17 07:30:08;;;;;;;;;;;;;;;10.36;81.37;101932.41;6397621;23;20630;-85
2023/04/17 07:32:39;;;;;;;2.97;2.78;;;;;;;10.42;81.67;101941.13;6368597;23;20379;-87
2023/04/17 07:35:09;;;;;;;7.55;3.88;;;;;;;10.32;82.55;101940.28;6369662;23;20510;-85
2023/04/17 07:38:02;;;;;;;3.25;3.03;;;;;;;10.32;82.96;101942.91;6352645;23;20017;-85
2023/04/17 07:40:35;;;;;;;3.60;3.30;;;;;;;10.38;82.43;101938.50;6371690;23;20023;-85
2023/04/17 07:43:06;;;;;;;3.05;2.85;;;;;;;10.48;81.58;101941.97;6367159;23;20446;-85
2023/04/17 07:45:36;;;;;;;2.58;2.38;;;;;;;10.39;82.49;101942.88;6368394;23;20016;-85
2023/04/17 07:48:07;;;;;;;4.57;3.53;;;;;;;10.47;81.99;101934.09;6368405;23;20349;-84
2023/04/17 07:50:37;;;;;;;5.13;3.05;;;;;;;10.26;82.97;101935.94;6372243;23;20013;-86
2023/04/17 07:53:08;;;;;;;4.32;4.03;;;;;;;10.45;81.90;101938.50;6378050;23;20861;-86
2023/04/17 07:55:39;;;;;;;3.90;3.50;;;;;;;10.46;81.21;101942.84;6367770;23;20013;-86
2023/04/17 07:58:10;;;;;;;4.05;3.60;;;;;;;10.42;80.92;101938.50;6396187;23;20297;-85
2023/04/17 08:00:40;;;;;;;2.58;2.38;;;;;;;10.41;81.29;101939.38;6341129;23;20392;-85
2023/04/17 08:03:13;;;;;;;2.30;2.20;;;;;;;10.37;81.67;101942.00;6376230;23;20012;-85
2023/04/17 08:05:43;;;;;;;3.83;3.33;;;;;;;10.47;80.70;101947.19;6368385;23;20023;-85
2023/04/17 08:08:14;;;;;;;3.15;2.05;;;;;;;10.49;80.47;101948.06;6377107;23;20363;-85
2023/04/17 08:10:45;;;;;;;4.78;3.72;;;;;;;10.43;80.79;101946.34;6379805;23;20009;-85
2023/04/17 08:13:18;;;;;;;;;;;;;;;10.51;80.41;101948.94;6360406;23;20040;-86
2023/04/17 08:15:50;;;;;;;2.00;1.90;;;;;;;10.46;80.49;101956.84;6379574;23;19912;-87
2023/04/17 08:18:21;;;;;;;7.10;4.03;;;;;;;10.48;80.06;101952.47;6374303;23;20011;-85
2023/04/17 08:20:51;;;;;;;6.47;2.90;;;;;;;10.47;79.47;101949.81;6372689;23;20045;-84
2023/04/17 08:23:22;;;;;;;13.02;4.15;;;;;;;10.44;80.77;101957.75;6372427;23;20001;-84
2023/04/17 08:25:52;;;;;;;2.95;2.75;;;;;;;10.65;79.53;101954.09;6371794;23;20021;-85
2023/04/17 08:28:23;;;;;;;2.53;2.33;;;;;;;10.59;79.93;101962.00;6373167;23;20020;-84
2023/04/17 08:30:54;;;;;;;5.10;3.50;;;;;;;10.56;80.46;101957.63;6371504;23;20080;-84
2023/04/17 08:33:25;;;;;;;3.58;3.30;;;;;;;10.59;79.60;101957.63;6366659;23;20032;-87
2023/04/17 08:35:56;;;;;;;4.53;4.15;;;;;;;10.74;79.44;101969.78;6366993;23;20017;-84
2023/04/17 08:38:28;;;;;;;6.15;4.82;;;;;;;10.80;79.48;101964.47;6395442;23;20092;-81
2023/04/17 08:41:04;;;;;;;2.60;2.40;;;;;;;10.76;79.12;101973.22;6342419;23;20484;-83
2023/04/17 08:43:35;;;;;;;4.05;2.78;;;;;;;10.88;78.98;101972.25;6368748;23;20020;-83
2023/04/17 08:46:06;;;;;;;3.95;3.65;;;;;;;10.84;78.81;101971.41;6367524;23;20013;-86
2023/04/17 08:48:36;;;;;;;2.90;2.70;;;;;;;11.02;78.25;101973.03;6369638;23;20096;-84
2023/04/17 08:51:07;;;;;;;4.63;2.60;;;;;;;10.98;77.57;101984.44;6369728;23;20083;-84
2023/04/17 08:53:37;;;;;;;4.03;3.72;;;;;;;10.88;78.25;101974.03;6368425;23;20021;-84
2023/04/17 08:56:08;;;;;;;4.88;4.38;;;;;;;11.10;77.91;101972.94;6367037;23;20413;-84
2023/04/17 08:58:38;;;;;;;3.78;3.45;;;;;;;11.20;77.20;101975.50;6368474;23;20020;-83
2023/04/17 09:01:10;;;;;;;2.72;2.53;;;;;;;11.00;77.85;101972.19;6395956;23;20262;-84
2023/04/17 09:03:43;;;;;;;3.65;3.15;;;;;;;11.10;77.03;101974.72;6381827;23;20096;-84
2023/04/17 09:06:14;;;;;;;6.30;5.65;;;;;;;11.12;76.95;101967.69;6369861;23;20553;-86
2023/04/17 09:09:01;;;;;;;6.55;3.75;;;;;;;11.05;76.47;101968.63;6371947;23;20052;-83
2023/04/17 09:11:32;;;;;;;4.80;3.55;;;;;;;11.07;76.39;101973.00;6365861;23;20039;-84
2023/04/17 09:14:02;;;;;;;2.55;2.35;;;;;;;11.15;75.96;101976.44;6369666;23;20013;-86
2023/04/17 09:16:33;;;;;;;2.03;1.88;;;;;;;11.20;75.90;101973.72;6367906;23;20450;-84
2023/04/17 09:19:08;;;;;;;2.78;2.58;;;;;;;11.31;75.82;101971.88;6369612;23;20497;-83
2023/04/17 09:21:38;;;;;;;3.05;2.75;;;;;;;11.26;75.48;101973.69;6342317;23;20009;-83
2023/04/17 09:24:09;;;;;;;6.45;3.67;;;;;;;11.40;74.71;101980.56;6366961;23;20252;-84
2023/04/17 09:26:40;;;;;;;2.88;2.67;;;;;;;11.48;75.02;101973.47;6369620;23;20005;-83
2023/04/17 09:29:11;;;;;;;1.52;1.42;;;;;;;11.59;73.78;101971.59;6343039;23;20091;-84
2023/04/17 09:31:42;;;;;;;2.15;2.03;;;;;;;11.48;73.27;101978.72;6365404;23;20489;-83
2023/04/17 09:34:14;;;;;;;1.08;1.08;;;;;;;11.68;73.18;101973.22;6365922;23;20028;-85
2023/04/17 09:36:45;;;;;;;2.03;1.92;;;;;;;11.64;73.20;101976.81;6366614;23;20005;-83
2023/04/17 09:39:22;;;;;;;2.28;1.90;;;;;;;11.55;72.75;101982.16;6396042;23;20027;-84
2023/04/17 09:42:02;;;;;;;2.50;2.10;;;;;;;11.71;73.33;101980.22;6343318;23;20339;-83
2023/04/17 09:44:35;;;;;;;3.05;1.95;;;;;;;11.79;73.55;101973.09;6365046;23;20017;-85
2023/04/17 09:47:11;;;;;;;2.08;1.98;;;;;;;11.86;72.40;101972.13;6381791;23;20045;-85
2023/04/17 09:49:48;;;;;;;;;;;;;;;11.93;71.02;101981.72;6341913;23;20028;-84
2023/04/17 09:52:22;;;;;;;2.38;2.17;;;;;;;11.98;70.29;101973.78;6341899;23;20352;-84
2023/04/17 09:54:54;;;;;;;2.08;1.98;;;;;;;12.15;70.48;101975.34;6389901;23;20353;-84
2023/04/17 09:57:25;;;;;;;2.25;2.08;;;;;;;12.12;69.17;101976.22;6370137;23;20009;-84
2023/04/17 10:00:00;;;;;;;1.95;1.60;;;;;;;12.23;69.39;101976.09;6332884;23;20031;-86
2023/04/17 10:02:32;;;;;;;1.33;1.27;;;;;;;12.20;68.73;101971.72;6338607;23;20159;-84
2023/04/17 10:05:04;;;;;;;3.42;2.22;;;;;;;12.14;65.83;101968.31;6337399;23;20345;-84
2023/04/17 10:07:38;;;;;;;4.30;1.92;;;;;;;12.09;66.47;101971.88;6362168;23;20012;-84
2023/04/17 10:10:09;;;;;;;2.08;1.80;;;;;;;12.28;67.69;101969.84;6387306;23;20099;-84
2023/04/17 10:12:40;;;;;;;2.05;1.95;;;;;;;12.40;66.37;101965.31;6360458;23;20017;-84
2023/04/17 10:15:13;;;;;;;3.88;2.40;;;;;;;12.52;66.29;101965.13;6360641;23;20009;-83
2023/04/17 10:17:45;;;;;;;1.52;1.42;;;;;;;12.31;64.43;101970.72;6386113;23;20012;-84
2023/04/17 10:20:22;;;;;;;1.05;1.02;;;;;;;12.37;64.65;101965.34;6359270;23;20104;-84
2023/04/17 10:22:55;;;;;;;1.88;1.70;;;;;;;12.41;64.47;101964.44;6360709;23;20009;-84
2023/04/17 10:25:27;;;;;;;1.17;1.13;;;;;;;12.35;65.28;101956.63;6386606;23;20108;-84
2023/04/17 10:28:01;;;;;;;1.88;1.58;;;;;;;12.44;64.66;101962.63;6360007;23;20433;-83
2023/04/17 10:30:55;;;;;;;2.38;1.75;;;;;;;12.58;63.20;101951.00;6388392;23;20025;-83
2023/04/17 10:33:26;;;;;;;2.08;1.98;;;;;;;12.63;61.42;101948.28;6360850;23;20323;-83
2023/04/17 10:35:57;;;;;;;1.92;1.58;;;;;;;12.71;62.86;101954.31;6389365;23;20384;-83
2023/04/17 10:38:32;;;;;;;2.35;1.45;;;;;;;12.69;61.84;101948.19;6362568;23;20291;-84
2023/04/17 10:41:08;;;;;;;1.05;1.05;;;;;;;12.70;62.84;101948.19;6362259;23;20166;-82
2023/04/17 10:43:40;;;;;;;1.58;1.48;;;;;;;12.79;63.36;101951.56;6361666;23;20064;-83
2023/04/17 10:46:12;;;;;;;1.33;1.30;;;;;;;12.78;62.51;101945.41;6361302;23;20201;-83
2023/04/17 10:48:51;;;;;;;1.48;1.38;;;;;;;12.83;60.14;101942.69;6360930;23;20131;-84
2023/04/17 10:51:26;;;;;;;1.63;1.05;;;;;;;12.98;61.35;101938.94;6366617;23;20470;-84
2023/04/17 10:54:02;;;;;;;0.85;0.85;;;;;;;12.90;59.83;101939.94;6362748;23;20017;-83
2023/04/17 10:56:52;;;;;;;1.48;1.38;;;;;;;12.91;59.68;101941.69;6390827;23;20072;-82
2023/04/17 10:59:28;;;;;;;1.60;1.52;;;;;;;12.96;59.03;101931.06;6363657;23;20362;-82
2023/04/17 11:01:59;;;;;;;0.57;0.57;;;;;;;13.08;60.06;101937.88;6361231;23;20048;-81
2023/04/17 11:04:30;;;;;;;1.15;1.08;;;;;;;13.17;60.73;101936.81;6387334;23;20343;-82
2023/04/17 11:07:01;;;;;;;1.70;1.60;;;;;;;13.26;60.19;101936.66;6362170;23;20009;-85
2023/04/17 11:09:31;;;;;;;3.17;1.55;;;;;;;13.34;61.42;101939.16;6360934;23;20102;-85
2023/04/17 11:12:02;;;;;;;1.80;1.60;;;;;;;13.38;59.92;101936.47;6364819;23;20013;-83
2023/04/17 11:14:33;;;;;;;0.93;0.93;;;;;;;13.38;58.51;101930.28;6360642;23;20069;-84
2023/04/17 11:17:04;;;;;;;0.95;0.95;;;;;;;13.41;59.44;101930.25;6363339;23;20024;-85
2023/04/17 11:19:34;;;;;;;1.40;1.33;;;;;;;13.49;58.50;101922.19;6358340;23;20167;-83
2023/04/17 11:22:05;;;;;;;1.77;1.60;;;;;;;13.57;58.30;101929.97;6357161;23;20009;-84
2023/04/17 11:24:35;;;;;;;1.17;1.13;;;;;;;13.69;58.51;101941.13;6386397;23;20064;-85
2023/04/17 11:27:06;;;;;;;0.47;0.47;;;;;;;13.61;56.08;101932.50;6361674;23;20100;-83
2023/04/17 11:29:36;;;;;;;1.27;1.08;;;;;;;13.60;55.87;101930.75;6359667;23;20017;-83
2023/04/17 11:32:10;;;;;;;2.30;1.63;;;;;;;13.63;56.48;101932.47;6358875;23;20087;-84
2023/04/17 11:34:40;;;;;;;1.52;1.35;;;;;;;13.71;54.80;101932.31;6360526;23;20021;-84
2023/04/17 11:37:12;;;;;;;1.10;1.10;;;;;;;13.82;55.55;101931.19;6360796;23;20016;-83
2023/04/17 11:39:43;;;;;;;1.35;1.27;;;;;;;13.77;54.31;101933.03;6360617;23;20020;-84
2023/04/17 11:42:24;;;;;;;0.45;0.45;;;;;;;13.91;54.93;101930.09;6359899;23;20039;-84
2023/04/17 11:45:06;;;;;;;0.60;0.60;;;;;;;13.92;55.51;101926.56;6362043;23;20371;-83
2023/04/17 11:47:36;;;;;;;0.98;0.82;;;;;;;13.91;55.14;101929.25;6360839;23;20016;-84